Time;durP1;ratioP1;P1;durP2;ratioP2;P2;SDS_P1;SDS_P2;PMS_P1;PMS_P2;Temp;Humidity;BMP_temperature;BMP_pressure;BME280_temperature;BME280_humidity;BME280_pressure;Samples;Min_cycle;Max_cycle;Signal;HPM_P1;HPM_P2
2022/10/27 00:02:06;;;;;;;16.15;8.60;;;;;;;13.43;100.00;101336.09;5108388;28;20036;-67
2022/10/27 00:04:31;;;;;;;13.18;9.05;;;;;;;13.25;100.00;101305.28;5104663;27;20499;-68
2022/10/27 00:06:57;;;;;;;12.93;8.98;;;;;;;13.43;100.00;101348.69;5101521;27;20027;-68
2022/10/27 00:09:22;;;;;;;14.60;9.32;;;;;;;13.40;100.00;101344.44;5107913;27;20409;-68
2022/10/27 00:11:47;;;;;;;13.95;9.18;;;;;;;13.37;100.00;101351.91;5110232;27;20032;-68
2022/10/27 00:14:13;;;;;;;14.35;9.48;;;;;;;13.39;100.00;101349.94;5110295;27;20053;-68
2022/10/27 00:16:39;;;;;;;13.55;10.35;;;;;;;13.38;100.00;101350.91;5110166;27;20023;-67
2022/10/27 00:19:04;;;;;;;14.27;10.23;;;;;;;13.28;100.00;101341.88;5109354;27;20110;-68
2022/10/27 00:21:30;;;;;;;15.30;9.95;;;;;;;13.21;100.00;101343.38;5108039;27;20034;-68
2022/10/27 00:23:55;;;;;;;13.60;9.65;;;;;;;13.21;100.00;101349.63;5106986;28;20024;-67
2022/10/27 00:26:21;;;;;;;13.80;9.98;;;;;;;13.22;100.00;101353.19;5107214;28;20088;-68
2022/10/27 00:28:47;;;;;;;14.27;9.90;;;;;;;13.21;100.00;101352.31;5107649;28;20035;-68
2022/10/27 00:31:15;;;;;;;13.73;9.52;;;;;;;13.19;100.00;101351.56;5106778;28;20062;-68
2022/10/27 00:33:41;;;;;;;16.35;10.50;;;;;;;13.08;100.00;101323.81;5107068;28;20035;-68
2022/10/27 00:36:13;;;;;;;13.23;9.73;;;;;;;13.17;100.00;101339.22;5106530;28;20110;-68
2022/10/27 00:38:38;;;;;;;18.77;11.05;;;;;;;13.07;100.00;101330.19;5103293;28;20031;-67
2022/10/27 00:41:05;;;;;;;16.92;11.07;;;;;;;13.11;100.00;101339.72;5106834;28;20054;-68
2022/10/27 00:43:36;;;;;;;13.68;10.07;;;;;;;13.10;100.00;101338.84;5106471;28;20092;-68
2022/10/27 00:46:26;;;;;;;14.45;9.38;;;;;;;13.08;100.00;101334.59;5105714;28;20035;-68
2022/10/27 00:48:56;;;;;;;16.65;10.63;;;;;;;13.06;100.00;101334.72;5105538;28;20027;-68
2022/10/27 00:51:23;;;;;;;14.05;9.30;;;;;;;13.06;100.00;101348.19;5106648;28;20059;-68
2022/10/27 00:53:49;;;;;;;18.15;10.38;;;;;;;13.04;100.00;101342.09;5107153;28;20024;-68
2022/10/27 00:56:15;;;;;;;14.93;10.25;;;;;;;12.97;100.00;101330.03;5107082;28;20038;-68
2022/10/27 00:58:44;;;;;;;14.82;9.68;;;;;;;13.02;100.00;101352.13;5106530;28;20482;-67
2022/10/27 01:01:09;;;;;;;15.35;10.40;;;;;;;12.99;100.00;101352.34;5107098;27;20028;-68
2022/10/27 01:03:35;;;;;;;16.58;10.38;;;;;;;12.95;100.00;101344.63;5106655;28;20125;-68
2022/10/27 01:06:01;;;;;;;15.88;9.77;;;;;;;12.85;100.00;101322.97;5105966;28;20028;-68
2022/10/27 01:08:26;;;;;;;14.82;10.50;;;;;;;12.91;100.00;101345.84;5105150;28;20024;-68
2022/10/27 01:10:52;;;;;;;15.23;10.52;;;;;;;12.90;100.00;101349.53;5106497;28;20390;-68
2022/10/27 01:13:19;;;;;;;14.23;9.50;;;;;;;12.88;100.00;101356.88;5106737;28;20126;-67
2022/10/27 01:15:59;;;;;;;13.43;9.73;;;;;;;12.83;100.00;101351.03;5106288;27;20035;-68
2022/10/27 01:18:42;;;;;;;15.43;9.85;;;;;;;12.74;100.00;101347.19;5103980;28;20374;-68
2022/10/27 01:21:26;;;;;;;13.05;9.73;;;;;;;12.72;100.00;101351.00;5104470;28;20107;-68
2022/10/27 01:24:21;;;;;;;12.63;9.20;;;;;;;12.69;100.00;101356.63;5105810;28;20047;-68
2022/10/27 01:27:01;;;;;;;;;;;;;;;12.62;100.00;101361.66;5107063;28;20088;-68
2022/10/27 01:29:59;;;;;;;14.13;10.32;;;;;;;12.60;100.00;101349.28;5104600;28;19945;-68
2022/10/27 01:32:32;;;;;;;15.88;10.45;;;;;;;12.60;100.00;101351.97;5105937;28;20074;-67
2022/10/27 01:35:33;;;;;;;15.33;11.00;;;;;;;12.60;100.00;101347.47;5106047;28;20028;-68
2022/10/27 01:38:19;;;;;;;16.75;11.52;;;;;;;12.59;100.00;101344.91;5105600;28;20401;-68
2022/10/27 01:41:01;;;;;;;15.80;10.38;;;;;;;12.45;100.00;101329.00;5104777;28;20517;-68
2022/10/27 01:43:30;;;;;;;15.32;11.10;;;;;;;12.59;100.00;101350.28;5104090;28;20142;-68
2022/10/27 01:45:57;;;;;;;15.50;10.35;;;;;;;12.57;100.00;101342.31;5105723;28;20127;-68
2022/10/27 01:48:22;;;;;;;14.45;10.52;;;;;;;12.56;100.00;101342.44;5106835;28;20169;-68
2022/10/27 01:50:48;;;;;;;16.13;11.10;;;;;;;12.47;100.00;101321.66;5107199;28;20122;-68
2022/10/27 01:53:14;;;;;;;14.30;10.98;;;;;;;12.65;100.00;101357.88;5106611;28;20066;-68
2022/10/27 01:56:04;;;;;;;15.98;10.38;;;;;;;12.65;100.00;101353.34;5105393;28;20012;-68
2022/10/27 01:58:44;;;;;;;13.38;10.02;;;;;;;12.66;100.00;101354.19;5105292;28;20028;-68
2022/10/27 02:01:39;;;;;;;14.10;10.80;;;;;;;12.64;100.00;101358.84;5106736;28;20035;-68
2022/10/27 02:04:27;;;;;;;;;;;;;;;12.65;100.00;101357.88;5105219;28;20035;-68
2022/10/27 02:07:25;;;;;;;17.63;11.55;;;;;;;12.68;100.00;101360.31;5076664;28;19912;-68
2022/10/27 02:10:04;;;;;;;15.70;11.40;;;;;;;12.69;100.00;101362.03;5100333;28;20035;-68
2022/10/27 02:12:33;;;;;;;16.20;11.15;;;;;;;12.64;100.00;101362.38;5105303;28;20024;-68
2022/10/27 02:15:03;;;;;;;19.90;11.82;;;;;;;12.65;100.00;101357.88;5106906;28;20028;-68
2022/10/27 02:17:35;;;;;;;16.67;11.45;;;;;;;12.60;100.00;101354.69;5106982;28;20075;-68
2022/10/27 02:20:05;;;;;;;16.38;11.20;;;;;;;12.60;100.00;101349.28;5107507;28;20027;-68
2022/10/27 02:22:31;;;;;;;17.13;12.65;;;;;;;12.72;100.00;101375.22;5106515;28;20089;-68
2022/10/27 02:24:57;;;;;;;19.45;12.73;;;;;;;12.70;100.00;101363.72;5106255;28;20034;-68
2022/10/27 02:27:39;;;;;;;21.00;13.35;;;;;;;12.75;100.00;101364.22;5106517;28;20019;-71
2022/10/27 02:30:05;;;;;;;20.88;12.57;;;;;;;12.77;100.00;101375.75;5106505;28;20026;-71
2022/10/27 02:32:32;;;;;;;15.93;12.25;;;;;;;12.77;100.00;101386.50;5106233;28;20088;-71
2022/10/27 02:34:59;;;;;;;18.83;12.70;;;;;;;12.71;100.00;101377.06;5106368;28;20019;-71
2022/10/27 02:37:36;;;;;;;19.75;12.77;;;;;;;12.81;100.00;101387.97;5106146;28;20085;-71
2022/10/27 02:40:02;;;;;;;18.52;12.93;;;;;;;12.81;100.00;101386.16;5104292;28;20080;-72
2022/10/27 02:42:28;;;;;;;17.17;12.52;;;;;;;12.73;100.00;101372.44;5106115;28;20153;-71
2022/10/27 02:44:53;;;;;;;17.75;12.65;;;;;;;12.63;100.00;101346.34;5106438;28;20608;-71
2022/10/27 02:47:19;;;;;;;15.63;12.35;;;;;;;12.81;100.00;101379.88;5106002;28;20020;-71
2022/10/27 02:49:44;;;;;;;21.08;13.35;;;;;;;12.62;100.00;101355.41;5106111;28;20056;-71
2022/10/27 02:52:10;;;;;;;26.40;12.45;;;;;;;12.82;100.00;101390.53;5106518;28;20472;-71
2022/10/27 02:54:36;;;;;;;15.68;11.90;;;;;;;12.82;100.00;101401.31;5110263;28;20031;-71
2022/10/27 02:57:01;;;;;;;20.20;12.65;;;;;;;12.82;100.00;101400.44;5110187;28;20452;-71
2022/10/27 02:59:27;;;;;;;18.08;11.73;;;;;;;12.82;100.00;101400.44;5110581;28;20031;-71
2022/10/27 03:01:52;;;;;;;21.30;13.15;;;;;;;12.77;100.00;101387.34;5110222;27;20028;-71
2022/10/27 03:04:17;;;;;;;19.80;12.15;;;;;;;12.70;100.00;101378.03;5110668;27;20023;-71
2022/10/27 03:06:43;;;;;;;21.45;13.15;;;;;;;12.83;100.00;101397.63;5112021;27;20038;-71
2022/10/27 03:09:08;;;;;;;14.93;11.68;;;;;;;12.83;100.00;101410.25;5108814;28;20028;-71
2022/10/27 03:11:34;;;;;;;18.45;11.98;;;;;;;12.83;100.00;101396.78;5111290;27;20023;-71
2022/10/27 03:13:59;;;;;;;19.10;12.82;;;;;;;12.83;100.00;101399.47;5108401;28;20028;-71
2022/10/27 03:16:25;;;;;;;17.77;13.13;;;;;;;12.82;100.00;101392.38;5109393;28;20122;-72
2022/10/27 03:18:50;;;;;;;17.38;12.35;;;;;;;12.86;100.00;101408.16;5109942;28;20447;-71
2022/10/27 03:21:15;;;;;;;18.15;12.80;;;;;;;12.79;100.00;101392.59;5109848;28;20019;-71
2022/10/27 03:23:41;;;;;;;20.05;13.68;;;;;;;12.85;100.00;101409.13;5108819;28;20032;-71
2022/10/27 03:26:06;;;;;;;18.55;13.05;;;;;;;12.73;100.00;101391.25;5108179;28;20046;-71
2022/10/27 03:28:34;;;;;;;19.45;13.23;;;;;;;12.84;100.00;101403.88;5109523;28;20032;-71
2022/10/27 03:31:00;;;;;;;21.92;14.40;;;;;;;12.86;100.00;101420.75;5109577;28;20030;-71
2022/10/27 03:33:26;;;;;;;21.75;14.05;;;;;;;12.78;100.00;101404.38;5108395;28;20040;-71
2022/10/27 03:35:52;;;;;;;22.02;14.25;;;;;;;12.87;100.00;101422.47;5109905;28;20034;-68
2022/10/27 03:38:17;;;;;;;27.38;15.73;;;;;;;12.89;100.00;101431.28;5107566;28;20023;-68
2022/10/27 03:40:43;;;;;;;21.63;14.43;;;;;;;12.88;100.00;101433.13;5109623;28;20058;-68
2022/10/27 03:43:09;;;;;;;23.00;15.07;;;;;;;12.78;100.00;101415.13;5109048;28;20043;-68
2022/10/27 03:45:35;;;;;;;23.05;15.23;;;;;;;12.90;100.00;101433.00;5109311;28;20414;-68
2022/10/27 03:48:06;;;;;;;26.65;17.60;;;;;;;12.90;100.00;101436.53;5106714;28;20031;-68
2022/10/27 03:50:31;;;;;;;22.70;17.00;;;;;;;12.91;100.00;101434.72;5106060;28;20498;-68
2022/10/27 03:52:57;;;;;;;28.33;16.73;;;;;;;12.86;100.00;101426.13;5107462;28;20035;-68
2022/10/27 03:55:22;;;;;;;23.75;16.55;;;;;;;12.86;100.00;101426.13;5108772;28;20027;-68
2022/10/27 03:57:48;;;;;;;26.73;18.02;;;;;;;12.94;100.00;101439.88;5108336;27;20027;-71
2022/10/27 04:00:14;;;;;;;22.90;15.30;;;;;;;12.96;100.00;101435.22;5108507;28;20482;-71
2022/10/27 04:02:40;;;;;;;22.80;16.38;;;;;;;12.98;100.00;101449.41;5108616;28;20574;-71
2022/10/27 04:05:06;;;;;;;24.88;17.05;;;;;;;12.96;100.00;101441.44;5106983;28;20016;-68
2022/10/27 04:07:31;;;;;;;25.75;18.08;;;;;;;12.98;100.00;101441.31;5105416;28;20500;-68
2022/10/27 04:09:58;;;;;;;27.25;18.17;;;;;;;12.89;100.00;101428.59;5104419;28;20027;-68
2022/10/27 04:12:23;;;;;;;27.70;18.67;;;;;;;12.75;100.00;101416.25;5106942;28;20057;-68
2022/10/27 04:14:49;;;;;;;29.80;19.58;;;;;;;12.87;100.00;101435.94;5108352;28;20095;-68
2022/10/27 04:17:16;;;;;;;28.48;18.77;;;;;;;12.89;100.00;101436.66;5107124;28;20494;-68
2022/10/27 04:19:41;;;;;;;33.65;20.98;;;;;;;12.94;100.00;101448.81;5107446;28;20382;-68
2022/10/27 04:22:07;;;;;;;31.88;20.52;;;;;;;12.92;100.00;101439.13;5108205;27;20042;-68
2022/10/27 04:24:32;;;;;;;33.55;20.65;;;;;;;12.96;100.00;101452.22;5108053;28;20108;-68
2022/10/27 04:26:58;;;;;;;42.45;22.02;;;;;;;12.97;100.00;101447.69;5108436;28;20036;-68
2022/10/27 04:29:23;;;;;;;39.20;22.27;;;;;;;12.89;100.00;101432.16;5109298;27;20031;-68
2022/10/27 04:31:49;;;;;;;45.13;24.95;;;;;;;12.88;100.00;101440.34;5109180;27;20118;-68
2022/10/27 04:34:14;;;;;;;39.50;24.40;;;;;;;12.98;100.00;101450.28;5108725;27;20016;-68
2022/10/27 04:36:40;;;;;;;40.30;24.83;;;;;;;13.00;100.00;101447.50;5107976;28;20072;-68
2022/10/27 04:39:06;;;;;;;45.05;25.60;;;;;;;12.95;100.00;101442.44;5107867;28;20031;-68
2022/10/27 04:41:31;;;;;;;43.10;26.33;;;;;;;12.95;100.00;101450.50;5107824;28;20027;-68
2022/10/27 04:43:57;;;;;;;48.08;27.52;;;;;;;13.01;100.00;101462.66;5109960;27;20201;-68
2022/10/27 04:46:22;;;;;;;46.70;27.00;;;;;;;13.00;100.00;101453.72;5113462;27;20510;-69
2022/10/27 04:48:48;;;;;;;51.50;28.95;;;;;;;13.03;100.00;101463.41;5107949;28;20035;-68
2022/10/27 04:51:13;;;;;;;45.78;27.40;;;;;;;13.03;100.00;101461.53;5107477;28;20038;-68
2022/10/27 04:53:39;;;;;;;50.38;28.55;;;;;;;13.05;100.00;101474.91;5107546;28;20035;-69
2022/10/27 04:56:05;;;;;;;50.63;27.70;;;;;;;12.93;100.00;101454.31;5107715;28;20034;-68
2022/10/27 04:58:31;;;;;;;50.38;29.10;;;;;;;12.88;100.00;101448.41;5106918;28;20114;-69
2022/10/27 05:00:56;;;;;;;57.88;30.80;;;;;;;13.02;100.00;101467.06;5106373;27;20106;-68
2022/10/27 05:03:22;;;;;;;61.35;32.10;;;;;;;12.97;100.00;101458.47;5107365;28;20046;-68
2022/10/27 05:05:47;;;;;;;49.15;29.83;;;;;;;13.02;100.00;101473.31;5107678;28;20039;-68
2022/10/27 05:08:13;;;;;;;63.13;32.25;;;;;;;13.04;100.00;101478.56;5107247;28;20019;-68
2022/10/27 05:10:39;;;;;;;68.93;34.60;;;;;;;13.03;100.00;101485.78;5107054;28;20106;-68
2022/10/27 05:13:04;;;;;;;67.25;31.75;;;;;;;12.95;100.00;101468.50;5107051;28;20087;-68
2022/10/27 05:15:30;;;;;;;63.80;32.28;;;;;;;13.01;100.00;101487.75;5106118;28;20028;-68
2022/10/27 05:17:56;;;;;;;72.63;34.63;;;;;;;13.02;100.00;101491.28;5107543;28;20028;-68
2022/10/27 05:20:21;;;;;;;71.10;33.05;;;;;;;13.02;100.00;101494.84;5105647;27;20359;-69
2022/10/27 05:22:47;;;;;;;68.00;32.20;;;;;;;13.01;100.00;101493.16;5105889;27;20047;-68
2022/10/27 05:25:13;;;;;;;63.17;31.08;;;;;;;13.02;100.00;101500.25;5105214;28;20024;-68
2022/10/27 05:27:39;;;;;;;61.25;32.90;;;;;;;13.01;100.00;101503.94;5104026;28;20039;-68
2022/10/27 05:30:05;;;;;;;69.88;35.45;;;;;;;13.00;100.00;101509.44;5102520;28;20467;-68
2022/10/27 05:32:31;;;;;;;64.60;34.63;;;;;;;12.99;100.00;101505.88;5106077;28;20111;-68
2022/10/27 05:34:56;;;;;;;60.20;33.17;;;;;;;12.99;100.00;101511.25;5104778;28;20029;-68
2022/10/27 05:37:22;;;;;;;62.33;32.60;;;;;;;13.05;100.00;101510.78;5104351;28;20023;-69
2022/10/27 05:39:48;;;;;;;72.13;35.50;;;;;;;13.05;100.00;101491.06;5105648;28;20110;-68
2022/10/27 05:42:13;;;;;;;62.95;33.53;;;;;;;12.97;100.00;101504.25;5106682;28;20023;-67
2022/10/27 05:44:40;;;;;;;67.53;35.67;;;;;;;12.99;100.00;101510.38;5105739;28;20059;-68
2022/10/27 05:47:05;;;;;;;56.60;31.95;;;;;;;13.06;100.00;101522.41;5106839;28;20031;-72
2022/10/27 05:49:30;;;;;;;62.00;35.15;;;;;;;12.99;100.00;101522.03;5106463;28;20195;-70
2022/10/27 05:51:56;;;;;;;60.08;33.50;;;;;;;13.06;100.00;101525.13;5107138;28;20020;-71
2022/10/27 05:54:21;;;;;;;64.13;31.88;;;;;;;13.06;100.00;101527.81;5106817;28;20016;-72
2022/10/27 05:56:49;;;;;;;72.50;35.33;;;;;;;13.05;100.00;101535.03;5107004;28;20019;-71
2022/10/27 05:59:14;;;;;;;71.20;34.63;;;;;;;13.07;100.00;101527.69;5106365;28;20019;-71
2022/10/27 06:01:39;;;;;;;63.00;33.78;;;;;;;13.04;100.00;101518.97;5106971;28;20026;-71
2022/10/27 06:04:05;;;;;;;55.17;30.48;;;;;;;12.97;100.00;101507.78;5106975;28;20038;-71
2022/10/27 06:06:30;;;;;;;53.95;29.75;;;;;;;13.02;100.00;101526.31;5105538;28;20035;-71
2022/10/27 06:08:56;;;;;;;45.85;28.33;;;;;;;12.94;100.00;101510.75;5106735;28;20023;-71
2022/10/27 06:11:21;;;;;;;42.47;26.58;;;;;;;12.89;100.00;101518.31;5105458;28;20028;-71
2022/10/27 06:13:51;;;;;;;41.60;27.77;;;;;;;13.11;100.00;101558.78;5105240;28;20027;-71
2022/10/27 06:16:20;;;;;;;46.63;30.02;;;;;;;13.11;100.00;101563.31;5106728;28;20032;-71
2022/10/27 06:18:46;;;;;;;41.05;28.88;;;;;;;13.13;100.00;101564.06;5106811;28;20532;-71
2022/10/27 06:21:11;;;;;;;47.55;30.05;;;;;;;13.12;100.00;101565.88;5106882;28;20027;-71
2022/10/27 06:23:39;;;;;;;44.13;28.65;;;;;;;12.96;100.00;101540.25;5106647;28;20112;-71
2022/10/27 06:26:04;;;;;;;47.95;30.60;;;;;;;13.16;100.00;101563.81;5106368;28;20412;-71
2022/10/27 06:28:30;;;;;;;43.95;30.13;;;;;;;13.17;100.00;101569.06;5109277;28;20024;-68
2022/10/27 06:30:55;;;;;;;43.80;29.45;;;;;;;13.17;100.00;101569.06;5110968;28;20111;-68
2022/10/27 06:33:21;;;;;;;41.47;27.00;;;;;;;13.17;100.00;101562.81;5111088;27;20020;-68
2022/10/27 06:35:46;;;;;;;39.70;27.00;;;;;;;13.21;100.00;101581.31;5110559;28;20039;-68
2022/10/27 06:38:15;;;;;;;39.40;27.35;;;;;;;13.07;100.00;101551.94;5110366;28;20034;-67
2022/10/27 06:40:44;;;;;;;39.72;27.30;;;;;;;13.23;100.00;101575.81;5109746;28;20034;-68
2022/10/27 06:43:13;;;;;;;39.58;26.88;;;;;;;13.13;100.00;101558.66;5110442;28;20051;-68
2022/10/27 06:45:39;;;;;;;39.90;26.92;;;;;;;13.24;100.00;101586.47;5110386;28;20035;-67
2022/10/27 06:48:07;;;;;;;40.50;27.95;;;;;;;13.29;100.00;101586.94;5110278;28;20531;-68
2022/10/27 06:50:33;;;;;;;36.53;26.30;;;;;;;13.25;100.00;101574.72;5109905;28;20043;-67
2022/10/27 06:53:00;;;;;;;37.50;26.15;;;;;;;13.34;100.00;101578.50;5110699;28;20023;-68
2022/10/27 06:55:25;;;;;;;36.63;26.02;;;;;;;13.35;100.00;101580.25;5109609;28;20062;-68
2022/10/27 06:57:51;;;;;;;36.47;26.08;;;;;;;13.34;100.00;101575.81;5107463;28;20450;-68
2022/10/27 07:00:17;;;;;;;37.35;25.60;;;;;;;13.38;100.00;101588.06;5109715;28;20038;-68
2022/10/27 07:02:42;;;;;;;39.92;27.45;;;;;;;13.34;100.00;101573.13;5108827;28;20486;-68
2022/10/27 07:05:08;;;;;;;35.92;25.83;;;;;;;13.43;100.00;101591.25;5107580;28;20019;-68
2022/10/27 07:07:35;;;;;;;37.45;25.42;;;;;;;13.50;100.00;101590.66;5110048;28;20486;-67
2022/10/27 07:10:00;;;;;;;39.47;26.27;;;;;;;13.49;100.00;101599.72;5109923;28;20055;-71
2022/10/27 07:12:26;;;;;;;34.83;25.75;;;;;;;13.42;100.00;101590.38;5108485;28;20093;-71
2022/10/27 07:14:51;;;;;;;34.97;24.10;;;;;;;13.57;100.00;101610.75;5109845;27;20019;-71
2022/10/27 07:17:17;;;;;;;36.05;25.48;;;;;;;13.61;100.00;101601.44;5109470;28;20050;-68
2022/10/27 07:19:42;;;;;;;34.88;24.42;;;;;;;13.66;100.00;101606.44;5109483;28;20020;-68
2022/10/27 07:22:08;;;;;;;36.75;25.67;;;;;;;13.67;100.00;101609.03;5108277;28;20027;-68
2022/10/27 07:24:33;;;;;;;32.65;25.42;;;;;;;13.70;100.00;101608.78;5106656;28;20027;-67
2022/10/27 07:26:58;;;;;;;30.13;23.40;;;;;;;13.76;100.00;101615.50;5108366;28;20032;-68
2022/10/27 07:29:24;;;;;;;32.55;24.90;;;;;;;13.74;100.00;101609.41;5109352;28;20040;-67
2022/10/27 07:31:49;;;;;;;32.15;24.08;;;;;;;13.72;100.00;101603.25;5109857;28;20036;-68
2022/10/27 07:34:15;;;;;;;34.47;25.90;;;;;;;13.82;100.00;101622.25;5108959;28;20016;-68
2022/10/27 07:36:40;;;;;;;33.47;26.23;;;;;;;13.78;100.00;101616.25;5109559;28;20425;-67
2022/10/27 07:39:06;;;;;;;38.30;27.23;;;;;;;13.84;100.00;101614.91;5108312;28;20023;-68
2022/10/27 07:41:32;;;;;;;35.58;26.63;;;;;;;13.82;100.00;101609.63;5109424;28;20144;-68
2022/10/27 07:43:57;;;;;;;29.90;23.13;;;;;;;14.00;100.00;101631.56;5106694;28;20051;-68
2022/10/27 07:46:22;;;;;;;30.90;24.15;;;;;;;14.03;100.00;101634.00;5107379;28;20036;-68
2022/10/27 07:48:48;;;;;;;29.45;23.83;;;;;;;14.10;100.00;101637.91;5107469;28;20390;-68
2022/10/27 07:51:13;;;;;;;28.98;23.25;;;;;;;14.05;100.00;101619.41;5108810;28;20417;-68
2022/10/27 07:53:39;;;;;;;31.05;23.42;;;;;;;14.16;100.00;101632.03;5108718;28;20015;-68
2022/10/27 07:56:05;;;;;;;29.30;22.75;;;;;;;14.15;100.00;101641.13;5109160;28;20144;-68
2022/10/27 07:58:30;;;;;;;30.83;24.52;;;;;;;14.15;100.00;101633.84;5108269;28;20501;-68
2022/10/27 08:00:56;;;;;;;31.48;21.70;;;;;;;14.10;100.00;101622.59;5109141;28;20816;-68
2022/10/27 08:03:24;;;;;;;35.38;22.85;;;;;;;14.28;100.00;101645.41;5106312;28;20028;-68
2022/10/27 08:05:50;;;;;;;28.05;22.63;;;;;;;14.26;100.00;101627.63;5108521;28;20512;-68
2022/10/27 08:08:17;;;;;;;29.85;23.20;;;;;;;14.40;100.00;101633.59;5108334;28;20027;-68
2022/10/27 08:10:43;;;;;;;30.60;24.40;;;;;;;14.46;100.00;101632.22;5108097;28;20042;-67
2022/10/27 08:13:09;;;;;;;32.10;25.17;;;;;;;14.54;100.00;101638.69;5108437;28;20110;-68
2022/10/27 08:15:37;;;;;;;30.33;23.60;;;;;;;14.67;100.00;101649.34;5108438;28;20023;-68
2022/10/27 08:18:03;;;;;;;33.50;26.00;;;;;;;14.72;100.00;101650.66;5108800;28;20114;-67
2022/10/27 08:20:31;;;;;;;33.85;25.15;;;;;;;14.75;100.00;101655.81;5108574;28;20432;-68
2022/10/27 08:23:01;;;;;;;32.75;25.55;;;;;;;14.78;100.00;101657.41;5108141;28;20102;-67
2022/10/27 08:25:28;;;;;;;31.85;23.83;;;;;;;14.81;100.00;101662.53;5108145;28;20554;-68
2022/10/27 08:27:54;;;;;;;32.03;24.95;;;;;;;14.67;100.00;101627.75;5108549;28;20069;-68
2022/10/27 08:30:21;;;;;;;31.95;25.77;;;;;;;14.82;100.00;101650.75;5107971;28;20027;-68
2022/10/27 08:32:47;;;;;;;37.67;26.10;;;;;;;14.93;100.00;101658.81;5107682;28;20031;-68
2022/10/27 08:35:13;;;;;;;33.05;25.08;;;;;;;14.98;100.00;101664.66;5107982;28;20023;-67
2022/10/27 08:37:39;;;;;;;30.60;23.83;;;;;;;15.08;100.00;101668.31;5105286;28;20046;-68
2022/10/27 08:40:06;;;;;;;33.58;25.33;;;;;;;14.97;100.00;101657.56;5108129;28;20464;-68
2022/10/27 08:42:46;;;;;;;29.55;23.98;;;;;;;15.10;100.00;101675.31;5106560;28;20482;-68
2022/10/27 08:45:45;;;;;;;32.50;24.42;;;;;;;15.08;100.00;101681.81;5107395;28;20043;-67
2022/10/27 08:48:11;;;;;;;35.33;25.90;;;;;;;15.11;100.00;101687.81;5106577;28;20059;-67
2022/10/27 08:50:41;;;;;;;36.45;26.60;;;;;;;15.04;100.00;101674.97;5106094;28;20031;-67
2022/10/27 08:53:14;;;;;;;31.00;25.27;;;;;;;15.15;100.00;101688.41;5105724;28;20102;-67
2022/10/27 08:55:52;;;;;;;38.83;27.08;;;;;;;15.24;100.00;101698.44;5107506;28;20356;-68
2022/10/27 08:58:37;;;;;;;38.90;28.63;;;;;;;15.25;100.00;101695.59;5102795;27;20035;-68
2022/10/27 09:01:08;;;;;;;34.53;27.33;;;;;;;15.29;100.00;101688.09;5105841;28;20031;-68
2022/10/27 09:04:05;;;;;;;36.45;27.02;;;;;;;15.33;100.00;101695.81;5102072;28;20118;-67
2022/10/27 09:06:37;;;;;;;34.38;26.83;;;;;;;15.26;100.00;101682.97;5103358;27;20522;-68
2022/10/27 09:09:36;;;;;;;36.25;27.20;;;;;;;15.34;100.00;101697.53;5105509;28;20653;-68
2022/10/27 09:12:20;;;;;;;40.92;29.33;;;;;;;15.38;100.00;101690.91;5107693;28;20420;-67
2022/10/27 09:15:13;;;;;;;37.50;27.98;;;;;;;15.52;100.00;101692.41;5107278;28;20028;-67
2022/10/27 09:17:44;;;;;;;34.83;27.00;;;;;;;15.68;99.77;101682.81;5106434;28;20031;-68
2022/10/27 09:20:37;;;;;;;34.13;26.88;;;;;;;15.75;98.88;101681.31;5104353;28;20058;-67
2022/10/27 09:23:04;;;;;;;33.42;25.95;;;;;;;15.73;99.22;101671.59;5095521;28;20051;-68
2022/10/27 09:25:32;;;;;;;37.13;26.42;;;;;;;15.93;99.19;101676.97;5106674;28;20118;-68
2022/10/27 09:27:58;;;;;;;34.38;25.98;;;;;;;15.96;98.35;101670.41;5107031;28;20791;-67
2022/10/27 09:30:26;;;;;;;34.20;25.67;;;;;;;16.11;97.30;101674.47;5106497;28;20031;-67
2022/10/27 09:32:55;;;;;;;31.80;24.77;;;;;;;16.07;96.19;101664.06;5106714;28;20534;-67
2022/10/27 09:35:25;;;;;;;31.50;24.42;;;;;;;16.29;96.35;101680.97;5104781;28;20024;-68
2022/10/27 09:37:52;;;;;;;30.77;23.95;;;;;;;16.70;95.40;101669.94;5119935;27;20723;-68
2022/10/27 09:40:20;;;;;;;30.52;22.60;;;;;;;17.59;89.27;101672.34;5106505;28;20110;-68
2022/10/27 09:42:49;;;;;;;27.98;22.58;;;;;;;18.64;81.27;101670.00;5106146;28;20034;-68
2022/10/27 09:45:17;;;;;;;27.85;22.48;;;;;;;18.95;77.77;101665.03;5104072;28;20113;-68
2022/10/27 09:47:46;;;;;;;29.50;24.75;;;;;;;18.94;76.43;101682.38;5106396;28;20034;-68
2022/10/27 09:50:23;;;;;;;31.60;25.60;;;;;;;18.84;77.18;101665.28;5106385;28;20502;-68
2022/10/27 09:52:49;;;;;;;33.22;26.83;;;;;;;18.73;78.03;101668.25;5106558;28;20035;-68
2022/10/27 09:55:16;;;;;;;29.08;24.90;;;;;;;18.63;78.98;101670.19;5106457;28;20490;-68
2022/10/27 09:57:43;;;;;;;32.10;26.58;;;;;;;18.52;78.21;101654.06;5106557;28;20470;-68
2022/10/27 10:00:24;;;;;;;34.20;26.02;;;;;;;18.41;80.20;101674.16;5104362;28;20020;-68
2022/10/27 10:03:21;;;;;;;37.15;28.17;;;;;;;18.21;80.84;101666.25;5107813;28;20050;-68
2022/10/27 10:06:01;;;;;;;32.90;26.88;;;;;;;18.25;81.82;101670.38;5108889;28;20027;-68
2022/10/27 10:08:29;;;;;;;33.20;27.15;;;;;;;18.19;82.07;101679.97;5110146;28;20019;-68
2022/10/27 10:11:00;;;;;;;40.13;29.50;;;;;;;18.23;82.38;101669.66;5110586;28;20096;-68
2022/10/27 10:13:27;;;;;;;38.90;29.27;;;;;;;18.23;82.82;101670.53;5108699;28;20051;-68
2022/10/27 10:16:09;;;;;;;35.75;28.83;;;;;;;18.16;83.28;101660.41;5108386;28;20097;-67
2022/10/27 10:18:37;;;;;;;36.28;29.02;;;;;;;18.10;82.94;101676.28;5109760;28;20028;-67
2022/10/27 10:21:07;;;;;;;38.97;30.23;;;;;;;17.85;84.31;101657.09;5110574;28;20116;-67
2022/10/27 10:23:35;;;;;;;38.47;29.42;;;;;;;17.82;85.21;101665.53;5110551;28;20505;-68
2022/10/27 10:26:04;;;;;;;35.63;29.20;;;;;;;17.71;85.88;101669.28;5107472;27;20027;-67
2022/10/27 10:28:38;;;;;;;37.53;28.58;;;;;;;17.59;87.27;101684.06;5109432;28;20369;-67
2022/10/27 10:31:07;;;;;;;39.35;28.40;;;;;;;17.19;87.47;101620.97;5109173;28;20024;-67
2022/10/27 10:33:43;;;;;;;37.65;28.50;;;;;;;17.43;87.72;101677.50;5107887;28;20533;-67
2022/10/27 10:36:36;;;;;;;35.13;27.48;;;;;;;17.41;88.23;101674.91;5110004;28;20540;-67
2022/10/27 10:39:20;;;;;;;35.13;26.55;;;;;;;17.41;89.42;101674.06;5110192;28;20031;-67
2022/10/27 10:42:05;;;;;;;37.65;27.35;;;;;;;17.44;88.36;101676.50;5109873;28;20098;-67
2022/10/27 10:44:30;;;;;;;36.00;28.80;;;;;;;17.48;88.16;101677.94;5108935;28;20067;-67
2022/10/27 10:46:56;;;;;;;36.20;28.80;;;;;;;17.45;88.08;101673.63;5108609;28;20024;-67
2022/10/27 10:49:26;;;;;;;34.40;26.58;;;;;;;17.44;87.98;101669.22;5108338;28;20101;-67
2022/10/27 10:51:57;;;;;;;37.25;28.33;;;;;;;17.40;89.79;101664.19;5107450;28;20019;-67
2022/10/27 10:54:39;;;;;;;36.45;28.45;;;;;;;17.41;89.35;101669.47;5108147;28;20479;-67
2022/10/27 10:57:27;;;;;;;38.70;29.70;;;;;;;17.37;90.54;101669.91;5107006;28;20065;-67
2022/10/27 10:59:55;;;;;;;41.75;31.08;;;;;;;17.39;90.49;101670.63;5109130;28;20027;-70
2022/10/27 11:02:31;;;;;;;41.67;30.40;;;;;;;17.39;89.61;101667.94;5108581;27;20077;-69
2022/10/27 11:05:08;;;;;;;38.38;29.90;;;;;;;17.37;90.18;101665.34;5108295;28;20039;-70
2022/10/27 11:07:34;;;;;;;39.67;30.92;;;;;;;17.39;90.37;101662.50;5109233;28;20031;-67
2022/10/27 11:10:14;;;;;;;41.22;29.65;;;;;;;17.35;89.72;101663.81;5109739;28;20030;-67
2022/10/27 11:12:55;;;;;;;40.50;31.00;;;;;;;17.26;89.83;101668.25;5109308;28;20070;-67
2022/10/27 11:15:34;;;;;;;38.20;30.10;;;;;;;17.27;90.76;101664.53;5108499;28;20118;-67